Tiempo atmosférico en la estación meteorológica de Córdoba Aeropuerto, Córdoba (90 m.)



Fecha
DESCASC
Temp. máxima en grados centígrados (hora)
DESCASC
Temp. mínima en grados centígrados (hora)
DESCASC
Temp. media en grados centígrados
DESCASC
Racha de viento máxima en m/sg (hora)
DESCASC
Velocidad máxima media en intervalos de 10 minutos(hora)
DESCASC
Precipitaciones diarias en mm
DESCASC
Precipitaciones de 00:00 a 06:00 en mm
DESCASC
Precipitaciones de 06:00 a 12:00 en mm
DESCASC
Precipitaciones de 12:00 a 18:00 en mm
DESCASC
Precipitaciones de 18:00 a 24:00 en mm
DESCASC
18-10-2018 18 (00:30) 12.8 (10:50) 15.4 11.39 (10:30) 6.94 (10:30) 34.1 3.1 21 7.3 2.7
17-10-2018 27.1 (16:40) 11.6 (08:40) 19.4 5 (11:50) 3.61 (11:50) 0 0 0 0 0
16-10-2018 24 (17:30) 14 (06:30) 19 -- (--) -- (--) 0 0 0 0 0
15-10-2018 19.8 (14:30) 10 (07:30) 14.9 7.78 (14:20) 5 (14:30) 18.8 0 0 3.7 15.1
14-10-2018 23.7 (00:00) 13.3 (00:00) 18.5 12.5 (15:20) 8.06 (15:30) 11.6 0 11.6 0 0
13-10-2018 33.3 (17:40) 15 (00:00) 24.1 8.89 (20:20) 6.11 (20:20) 0 0 0 0 0
12-10-2018 30.3 (16:30) 19.9 (00:00) 25.1 6.67 (10:20) 4.44 (10:20) 0 0 0 0 0
11-10-2018 26.6 (17:10) 18.9 (01:00) 22.8 11.67 (16:40) 8.06 (17:10) 0 0 0 0 0
10-10-2018 28.1 (17:00) 17 (00:00) 22.6 6.67 (17:00) 4.44 (18:20) 0 0 0 0 0
09-10-2018 28.4 (17:30) 13.6 (04:20) 21 11.67 (21:10) 8.33 (21:20) 0 0 0 0 0
08-10-2018 29.1 (17:20) 13.6 (07:30) 21.4 8.33 (03:10) 5.56 (11:00) 0 0 0 0 0
07-10-2018 31.6 (17:20) 15.2 (08:10) 23.4 8.33 (15:40) 5.28 (16:40) 0 0 0 0 0
06-10-2018 32.8 (17:10) 13.8 (06:00) 23.3 5.83 (10:40) 3.89 (10:30) 0 0 0 0 0
05-10-2018 33.3 (16:40) 13.4 (06:30) 23.3 6.67 (21:00) 4.44 (20:50) 0 0 0 0 0
04-10-2018 32.9 (17:50) 13.6 (00:00) 23.3 7.22 (21:00) 5 (21:00) 0 0 0 0 0
03-10-2018 32.5 (18:20) 13.8 (00:00) 23.2 6.11 (10:30) 4.17 (11:00) 0 0 0 0 0
02-10-2018 33.7 (16:50) 15.4 (00:00) 24.6 9.17 (11:20) 6.11 (11:30) 0 0 0 0 0
01-10-2018 34 (17:30) 17.7 (00:00) 25.9 7.78 (18:00) 4.72 (18:00) 0.9 0 0 0.8 0.1
30-09-2018 32 (15:40) 17.1 (00:00) 24.6 6.11 (23:20) 4.17 (23:20) 0 0 0 0 0
29-09-2018 32.5 (18:00) 16.9 (00:00) 24.7 4.17 (13:50) 2.78 (02:10) 0 0 0 0 0
28-09-2018 31.7 (17:50) 18.2 (00:00) 25 5.83 (16:50) 2.78 (00:10) 0 0 0 0 0
27-09-2018 33.2 (17:20) 19.1 (00:00) 26.2 7.78 (13:00) 4.72 (11:40) 0 0 0 0 0
26-09-2018 -- (--) -- (--) -- -- (--) -- (--) -- -- -- 0 25.1
25-09-2018 37.3 (17:00) 18.7 (00:00) 28 9.17 (21:20) 5.28 (15:50) 0 0 0 0 0
24-09-2018 38.8 (18:10) 17.8 (00:00) 28.3 5 (10:30) 3.61 (10:30) 0 0 0 0 0
23-09-2018 38.3 (17:00) 18.3 (07:50) 28.3 10.28 (15:50) 4.44 (11:20) 0 0 0 0 0
22-09-2018 38.3 (17:00) 19.1 (07:10) 28.7 8.33 (18:10) 4.72 (11:10) 0 0 0 0 0
21-09-2018 36.2 (17:30) 20.3 (07:20) 28.3 5 (02:10) 3.06 (01:50) 0 0 0 0 0
20-09-2018 35.2 (18:30) 20.6 (08:00) 27.9 7.22 (18:10) 3.33 (01:50) 0 0 0 0 0

Gráficas

Temp. máximas Temp. mínimas Temp. medias Precipitaciones Rachas de viento máximas Velocidades máximas media en intervalos de 10 minutos

Datos horarios

Fecha y hora oficial Temperatura (ºC) Velocidad del viento (km/h) Dirección del viento Racha (km/h) Dirección de racha Precipitación (mm) Presión (hPa) Tendencia (hPa) Humedad (%)
2018-10-19 23:00:00 14 4 Oeste 9 Sur 0 1003.5 1.6 89
2018-10-19 22:00:00 15 0 Calma 8 Sudoeste 0 1003.1 2.3 82
2018-10-19 21:00:00 16 6 Sudoeste 15 Sur 0 1002.6 1.9 80
2018-10-19 20:00:00 17.7 6 Noroeste 9 Oeste 0 1001.9 1.4 70
2018-10-19 19:00:00 20.1 7 Sur 22 Sur 0 1000.8 0.3 57
2018-10-19 18:00:00 22.7 12 Sur 17 Sur 0 1000.7 -0.1 45
2018-10-19 17:00:00 22.7 8 Sur 17 Sur 0 1000.5 -0.7 46
2018-10-19 16:00:00 22.6 3 Sur 17 Este 0 1000.5 -0.9 46
2018-10-19 15:00:00 20.7 10 Este 18 Nordeste 0 1000.8 -0.5 57
2018-10-19 14:00:00 20 7 Este 21 Este 0 1001.2 -0.4 61
2018-10-19 13:00:00 18.5 12 Este 30 Este 0 1001.4 0 68
2018-10-19 12:00:00 16.7 15 Este 26 Este 0 1001.3 0.3 79
2018-10-19 11:00:00 15.2 16 Este 24 Este 0 1001.6 1.3 86
2018-10-19 10:00:00 13.4 6 Sudeste 9 Sudeste 0 1001.4 1.5 96
2018-10-19 09:00:00 10.9 3 Este 8 Sudeste 0 1001 0.9 96
2018-10-19 08:00:00 11.5 5 Sudeste 11 Sudeste 0 1000.3 0.6 96
2018-10-19 07:00:00 12.1 3 Sudeste 11 Este 0 999.9 -0.2 95
2018-10-19 06:00:00 12.5 7 Este 9 Este 0 1000.1 -0.3 95
2018-10-19 05:00:00 12.8 5 Nordeste 11 Nordeste 0 999.7 0 95
2018-10-19 04:00:00 13.3 4 Este 5 Este 0 1000.1 0 95
2018-10-19 03:00:00 13.2 4 Nordeste 8 Nordeste 0 1000.4 -0.4 95
2018-10-19 02:00:00 13 3 Norte 8 Nordeste 0 999.7 -1.2 95
2018-10-19 01:00:00 13.2 0 Calma 15 Este 0 1000.1 -0.2 94
2018-10-19 00:00:00 13.5 10 Este 15 Nordeste 0 1000.8 0.7 94
2018-10-18 23:00:00 13.5 8 Este 15 Nordeste 0 1000.9 1.9 94
2018-10-18 22:00:00 13.5 11 Nordeste 18 Nordeste 1.3 1000.3 1.6 94
2018-10-18 21:00:00 13.7 11 Este 17 Este 1.1 1000.1 1.8 93
2018-10-18 20:00:00 13.8 6 Sur 13 Nordeste 0.2 999 1.3 91
2018-10-18 19:00:00 13.9 8 Este 15 Este 0.1 998.7 0.7 88
2018-10-18 18:00:00 14 12 Este 18 Este 0 998.3 0.2 88
2018-10-18 17:00:00 14.4 12 Este 18 Este 0 997.7 -1 86
2018-10-18 16:00:00 13.9 11 Nordeste 22 Norte 2.1 998 -0.8 89
2018-10-18 15:00:00 14 14 Norte 21 Norte 1.1 998.1 0.1 92
2018-10-18 14:00:00 14.4 4 Sur 17 Sur 1.1 998.7 0.3 90
2018-10-18 13:00:00 13.9 10 Sur 21 Sur 3 998.8 2.1 94
2018-10-18 12:00:00 13.5 8 Sudoeste 22 Oeste 1.3 998 1.6 94
2018-10-18 11:00:00 12.9 16 Oeste 41 Oeste 7.2 998.4 1.5 96
2018-10-18 10:00:00 16.1 8 Este 21 Este 0 996.7 -1.1 93
2018-10-18 09:00:00 15.6 12 Nordeste 21 Este 0.7 996.4 -1.5 94
2018-10-18 08:00:00 15.8 7 Este 13 Nordeste 5.2 996.9 -1.6 97
2018-10-18 07:00:00 16.1 3 Sudeste -- -- 6.6 997.8 -1.7 97
2018-10-18 06:00:00 16.9 4 Norte 8 Nordeste 3.1 997.9 -2 95
2018-10-18 05:00:00 17.4 7 Sur 11 Sur 0 998.5 -2.3 90
2018-10-18 04:00:00 17.3 4 Oeste 8 Oeste 0 999.5 -2 90
2018-10-18 03:00:00 17.2 5 Oeste 13 Oeste 0 999.9 -2.3 88
2018-10-18 02:00:00 17.6 7 Oeste 15 Sudoeste 0 1000.8 -1.6 87
2018-10-18 01:00:00 17.9 10 Sudoeste 15 Oeste 0 1001.5 -0.7 83
2018-10-18 00:00:00 17.6 9 Sudoeste 13 Sudoeste 0 1002.2 0.1 82
2018-10-17 23:00:00 17.6 10 Sudoeste 15 Sur 0 1002.4 0.6 78
2018-10-17 22:00:00 18.2 5 Sur 9 Sudoeste 0 1002.2 0.6 75
2018-10-17 21:00:00 19.7 4 Sudoeste 9 Oeste 0 1002.1 0 72
2018-10-17 20:00:00 21.6 8 Oeste 13 Oeste 0 1001.8 -1 59
2018-10-17 19:00:00 25 10 Oeste 17 Oeste 0 1001.6 -1.8 45
2018-10-17 18:00:00 26.6 8 Oeste 15 Sudoeste 0 1002.1 -2.2 37
2018-10-17 17:00:00 26.8 5 Sudoeste 11 Sudoeste 0 1002.8 -2.8 37
2018-10-17 16:00:00 26.1 5 Sur 13 Sur 0 1003.4 -3 40
2018-10-17 15:00:00 24.6 7 Sur 13 Sur 0 1004.3 -2.4 48
2018-10-17 14:00:00 23 4 Sudeste 17 Este 0 1005.6 -1.6 54
2018-10-17 13:00:00 21.8 8 Este 17 Este 0 1006.4 -0.7 60
2018-10-17 12:00:00 19.8 12 Este 18 Este 0 1006.7 -0.1 68
2018-10-17 11:00:00 17.5 7 Este 11 Este 0 1007.2 0.7 77
2018-10-17 10:00:00 15.1 2 Este 8 Este 0 1007.1 0.8 91
2018-10-17 09:00:00 11.9 -- -- -- -- 0 1006.8 0.8 97
2018-10-17 08:00:00 12.1 0 Calma 4 Sudeste 0 1006.5 0.5 97
2018-10-17 07:00:00 12.4 0 Calma 5 Noroeste 0 1006.3 0.3 97
2018-10-17 06:00:00 12.4 0 Calma 5 Sur 0 1006 -0.1 96
2018-10-17 05:00:00 12.9 0 Calma 5 Nordeste 0 1006 0 96
2018-10-17 04:00:00 13.1 2 Norte 5 Sudeste 0 1006 0.3 96
2018-10-17 03:00:00 13.8 3 Sudoeste -- -- 0 1006.1 0.2 95
2018-10-17 02:00:00 14.6 3 Sur 5 Sur 0 1006 0.5 95
2018-10-17 01:00:00 15.3 3 Sudoeste 8 Sur 0 1005.7 0.6 92
2018-10-17 00:00:00 16.1 -- -- -- -- 0 1005.9 1.2 90
2018-10-16 23:00:00 16.6 8 Sudoeste -- -- 0 1005.5 1.5 90
2018-10-16 22:00:00 17.7 6 Sur -- -- 0 1005.1 1.6 86
2018-10-16 21:00:00 18.4 0 Calma 11 Noroeste 0 1004.7 1.6 82
2018-10-16 20:00:00 20.6 5 Oeste -- -- 0 1004 0.9 67
2018-10-16 19:00:00 23.7 4 Sudeste 13 Este 0 1003.5 0.6 50
2018-10-16 18:00:00 23.8 8 Este 17 Este 0 1003.1 -0.2 50
2018-10-16 17:00:00 23.7 11 Este 21 Este 0 1003.1 -0.6 51
2018-10-16 16:00:00 22.9 13 Este 24 Este 0 1002.9 -0.8 56
2018-10-16 15:00:00 21.9 12 Este 22 Sudeste 0 1003.3 -0.2 60
2018-10-16 14:00:00 21.1 14 Este 28 Este 0 1003.7 0.1 63
2018-10-16 13:00:00 20.3 12 Este 21 Este 0 1003.7 0.7 67
2018-10-16 12:00:00 19.2 4 Sudeste 13 Este 0 1003.5 1.3 70
2018-10-16 11:00:00 17.2 9 Este 15 Este 0 1003.6 1.9 78
2018-10-16 10:00:00 15.5 8 Este 13 Este 0 1003 1.6 87
2018-10-16 09:00:00 14.2 4 Este 9 Este 0 1002.2 1.2 92
2018-10-16 08:00:00 14.2 5 Este 13 Nordeste 0 1001.7 0.9 92
2018-10-16 07:00:00 14 11 Nordeste 17 Este 0 1001.4 0.8 91
2018-10-16 06:00:00 14.1 10 Este 18 Este 0 1001 0.2 91
2018-10-16 05:00:00 14.2 13 Nordeste 18 Nordeste 0 1000.8 0 90
2018-10-16 04:00:00 14.2 13 Este 21 Nordeste 0 1000.6 -0.2 92
2018-10-16 03:00:00 14.4 12 Este 17 Nordeste 0 1000.8 -0.1 93
2018-10-16 02:00:00 14.6 13 Este 18 Este 0 1000.8 0.2 94
2018-10-16 01:00:00 14.5 14 Nordeste 18 Este 0 1000.8 0.5 94
2018-10-16 00:00:00 14.5 11 Nordeste 24 Nordeste 0.4 1000.9 0.3 95
2018-10-15 23:00:00 14.5 15 Nordeste 22 Nordeste 0.1 1000.6 0 96
2018-10-15 22:00:00 14.7 15 Nordeste 22 Nordeste 0.3 1000.3 -0.6 97
2018-10-15 21:00:00 15.1 10 Nordeste 13 Nordeste 4.2 1000.6 -0.4 97
2018-10-15 20:00:00 15.1 10 Este 18 Este 6.6 1000.6 0.1 97
2018-10-15 19:00:00 15.2 9 Norte 15 Este 3.5 1000.9 -0.3 95
2018-10-15 18:00:00 15.7 5 Este 17 Nordeste 3.3 1001 -0.8 90
2018-10-15 17:00:00 16.6 9 Nordeste 15 Oeste 0.4 1000.5 -2.5 80
2018-10-15 16:00:00 18.4 12 Oeste 28 Sudoeste 0 1001.2 -2.8 64
2018-10-15 15:00:00 18.7 15 Sudoeste 28 Sudoeste 0 1001.8 -2.6 56
2018-10-15 14:00:00 19.3 16 Sur 26 Sudoeste 0 1003 -1.1 48
2018-10-15 13:00:00 18.1 12 Sudoeste 18 Sur 0 1004 -0.3 57
2018-10-15 12:00:00 16.4 8 Oeste 17 Oeste 0 1004.4 0.4 65
2018-10-15 11:00:00 14.6 10 Sudoeste 17 Sudoeste 0 1004.1 0.3 73
2018-10-15 10:00:00 12.6 8 Sudoeste 15 Oeste 0 1004.3 0.8 81
2018-10-15 09:00:00 10.4 9 Oeste 18 Oeste 0 1004 0.7 90
2018-10-15 08:00:00 10.1 10 Oeste 15 Oeste 0 1003.8 0.5 90
2018-10-15 07:00:00 10.3 7 Oeste 11 Oeste 0 1003.5 -0.1 89
2018-10-15 06:00:00 10.7 2 Oeste 11 Sudoeste 0 1003.3 -0.5 87
2018-10-15 05:00:00 11.9 11 Sudoeste 18 Sudoeste 0 1003.3 -0.4 82
2018-10-15 04:00:00 11.3 8 Oeste 11 Oeste 0 1003.6 0 84
2018-10-15 03:00:00 12.6 4 Oeste 9 Sudeste 0 1003.8 0.3 78
2018-10-15 02:00:00 13.6 4 Sur 15 Oeste 0 1003.7 0.5 73
2018-10-15 01:00:00 14.1 9 Oeste 17 Oeste 0 1003.6 0.8 71
2018-10-15 00:00:00 13.3 10 Oeste 13 Sudoeste 0 1003.5 1 79
2018-10-14 23:00:00 14 11 Oeste 13 Oeste 0 1003.2 1.4 76
2018-10-14 22:00:00 15 7 Oeste 13 Oeste 0 1002.8 1.4 69
2018-10-14 21:00:00 16.2 11 Oeste 18 Oeste 0 1002.5 1.5 61
2018-10-14 20:00:00 18.2 11 Oeste 24 Oeste 0 1001.8 0.6 50
2018-10-14 19:00:00 20.4 17 Oeste 33 Oeste 0 1001.4 -0.2 39
2018-10-14 18:00:00 21.3 20 Oeste 32 Oeste 0 1001 -0.7 37
2018-10-14 17:00:00 21.9 20 Oeste 39 Oeste 0 1001.2 -0.4 35
2018-10-14 16:00:00 21.4 24 Oeste 45 Oeste 0 1001.6 -0.2 38
2018-10-14 15:00:00 20.8 26 Noroeste 37 Noroeste 0 1001.7 0.1 42
2018-10-14 14:00:00 20.1 22 Oeste 39 Oeste 0 1001.6 0.2 46
2018-10-14 13:00:00 19.9 22 Oeste 37 Oeste 0 1001.8 1.5 52
2018-10-14 12:00:00 18.9 22 Sudoeste 30 Sudoeste 0 1001.6 2.4 67
2018-10-14 11:00:00 17.2 15 Oeste 30 Oeste 0 1001.4 2.1 77
2018-10-14 10:00:00 16.7 13 Oeste 33 Oeste 4.5 1000.3 1.7 93
2018-10-14 09:00:00 17.9 14 Sudoeste 30 Sudoeste 0.4 999.2 0.9 95
2018-10-14 08:00:00 18.3 17 Sudoeste 28 Sudoeste 5.2 999.3 0.7 95
2018-10-14 07:00:00 18.6 8 Sudoeste 21 Sudoeste 1.5 998.6 -0.6 89
2018-10-14 06:00:00 18.4 6 Sudoeste 9 Oeste 0 998.3 -0.4 81
2018-10-14 05:00:00 18 5 Sudoeste 15 Oeste 0 998.6 -0.6 77
2018-10-14 04:00:00 19.9 10 Oeste 15 Oeste 0 999.2 -0.8 70
2018-10-14 03:00:00 20.8 3 Norte 15 Sudoeste 0 998.7 -2.2 64
2018-10-14 02:00:00 21.5 4 Este 15 Sur 0 999.2 -2 59
2018-10-14 01:00:00 22 6 Sur 15 Sur 0 1000 -1 55
2018-10-14 00:00:00 23.7 4 Sudeste 17 Sudoeste 0 1000.9 -0.1 48
2018-10-13 23:00:00 24.2 5 Oeste 13 Oeste 0 1001.2 0.4 48
2018-10-13 22:00:00 24.7 7 Sudoeste 24 Sur 0 1001 0.1 46
2018-10-13 21:00:00 26.4 14 Sudoeste 32 Sur 0 1001 0 40
2018-10-13 20:00:00 28.7 18 Sur 26 Sur 0 1000.8 -0.8 33
2018-10-13 19:00:00 32 18 Sur 30 Sudoeste 0 1000.9 -1.8 24
2018-10-13 18:00:00 33.1 12 Sudoeste 22 Sur 0 1001 -2.9 22
2018-10-13 17:00:00 32.6 8 Noroeste 22 Norte 0 1001.6 -3.3 27
2018-10-13 16:00:00 32.3 3 Este 15 Sur 0 1002.7 -3.4 28
2018-10-13 15:00:00 30.5 8 Sudoeste 22 Nordeste 0 1003.9 -3.1 33
2018-10-13 14:00:00 29 8 Nordeste 18 Este 0 1004.9 -2.7 39
2018-10-13 13:00:00 27 10 Este 18 Este 0 1006.1 -1.5 48
2018-10-13 12:00:00 24.5 12 Este 22 Nordeste 0 1007 -0.1 55
2018-10-13 11:00:00 22.5 11 Este 17 Este 0 1007.6 0.5 62
2018-10-13 10:00:00 20.3 4 Sudeste 5 Este 0 1007.6 0.6 71
2018-10-13 09:00:00 15.7 0 Calma 5 Sudoeste 0 1007.1 -0.1 88
2018-10-13 08:00:00 15.2 0 Calma 5 Noroeste 0 1007.1 -0.5 88
2018-10-13 07:00:00 15.8 3 Sur 8 Sur 0 1007 -1.2 85
2018-10-13 06:00:00 16.7 5 Norte 9 Sudeste 0 1007.2 -1.4 85
2018-10-13 05:00:00 17.2 6 Este 9 Este 0 1007.6 -1.2 83
2018-10-13 04:00:00 17.1 6 Norte 8 Norte 0 1008.2 -1 84
2018-10-13 03:00:00 17.5 0 Calma 4 Sur 0 1008.6 -0.9 80
2018-10-13 02:00:00 18.4 0 Calma 4 Norte 0 1008.8 -0.9 76
2018-10-13 01:00:00 19 0 Calma -- -- 0 1009.2 -0.4 74
2018-10-13 00:00:00 19.9 2 Oeste 5 Oeste 0 1009.5 0 74
2018-10-12 23:00:00 21.1 3 Nordeste 5 Nordeste 0 1009.7 0.3 69
2018-10-12 22:00:00 22.3 4 Sur 5 Sur 0 1009.6 0.4 65
2018-10-12 21:00:00 23.7 4 Noroeste 13 Noroeste 0 1009.5 0.2 58
2018-10-12 20:00:00 25.4 6 Noroeste 13 Oeste 0 1009.4 0 50
2018-10-12 19:00:00 28.7 5 Oeste 11 Oeste 0 1009.2 -0.8 39
2018-10-12 18:00:00 29.5 6 Oeste 11 Sudoeste 0 1009.3 -1.2 39
2018-10-12 17:00:00 28.5 8 Noroeste 15 Noroeste 0 1009.4 -1.9 41
2018-10-12 16:00:00 29.1 3 Sur 15 Nordeste 0 1010 -1.7 40
2018-10-12 15:00:00 28.7 5 Este 15 Nordeste 0 1010.5 -1.6 43
2018-10-12 14:00:00 28.6 6 Sudoeste 13 Este 0 1011.3 -0.6 44
2018-10-12 13:00:00 26.4 7 Este 15 Este 0 1011.7 0.5 51
2018-10-12 12:00:00 24.5 10 Este 18 Este 0 1012.1 1.9 58
2018-10-12 11:00:00 23.1 13 Este 24 Este 0 1011.9 2.1 62
2018-10-12 10:00:00 22 14 Este 21 Este 0 1011.2 1.9 69
2018-10-12 09:00:00 20.6 11 Este 13 Este 0 1010.2 1.2 76
2018-10-12 08:00:00 20.2 10 Este 13 Este 0 1009.8 0.9 78
2018-10-12 07:00:00 20 7 Nordeste 13 Nordeste 0 1009.3 0.4 78
2018-10-12 06:00:00 20.7 9 Norte 13 Norte 0 1009 -0.1 75
2018-10-12 05:00:00 21 5 Este 9 Este 0 1008.9 -0.2 74
2018-10-12 04:00:00 21.4 4 Sudeste 13 Sur 0 1008.9 -0.1 71
2018-10-12 03:00:00 20.7 4 Nordeste 8 Este 0 1009.1 0.2 76
2018-10-12 02:00:00 20.2 0 Calma 9 Sur 0 1009.1 0.8 76
2018-10-12 01:00:00 20.8 8 Sur 13 Sur 0 1009 1.5 74
2018-10-12 00:00:00 21.4 10 Sudoeste 18 Sudoeste 0 1008.9 2.3 70
2018-10-11 23:00:00 22 10 Sudoeste 17 Sudoeste 0 1008.3 2.4 67
2018-10-11 22:00:00 22 11 Sudoeste 26 Oeste 0 1007.5 2.4 67
2018-10-11 21:00:00 23.2 18 Sudoeste 32 Sudoeste 0 1006.6 2.2 59
2018-10-11 20:00:00 24.1 18 Sudoeste 28 Oeste 0 1005.9 2.5 55
2018-10-11 19:00:00 25.1 19 Sudoeste 35 Sudoeste 0 1005.1 1.7 49
2018-10-11 18:00:00 25.5 24 Sudoeste 41 Sudoeste 0 1004.4 0.7 50
2018-10-11 17:00:00 26.4 28 Sudoeste 42 Sur 0 1003.4 -0.6 50
2018-10-11 16:00:00 25.3 17 Sudoeste 35 Sudoeste 0 1003.4 -0.1 60
2018-10-11 15:00:00 23.7 18 Sudoeste 32 Sudoeste 0 1003.7 0.2 68
2018-10-11 14:00:00 21.5 23 Sur 37 Sudoeste 0 1004 0.8 83
2018-10-11 13:00:00 22.4 28 Sur 39 Sur 0 1003.5 1.4 71
2018-10-11 12:00:00 21.8 5 Sudeste 13 Nordeste 0 1003.5 2.4 73
2018-10-11 11:00:00 20.4 10 Nordeste 17 Nordeste 0 1003.2 2.8 79
2018-10-11 10:00:00 20.4 8 Este 15 Este 0 1002.1 1.9 76
2018-10-11 09:00:00 20.3 8 Nordeste 15 Este 0 1001.1 1.4 76
2018-10-11 08:00:00 19.8 10 Este 13 Este 0 1000.4 0.5 78
2018-10-11 07:00:00 19.9 7 Este 11 Este 0 1000.2 0.3 79
2018-10-11 06:00:00 19.5 6 Nordeste 9 Norte 0 999.7 -0.8 80
2018-10-11 05:00:00 19.7 7 Norte 9 Norte 0 999.9 -0.3 79
2018-10-11 04:00:00 19.7 4 Norte -- -- 0 999.9 -0.2 79
2018-10-11 03:00:00 19.2 4 Sudoeste 8 Sudeste 0 1000.5 0.9 79
2018-10-11 02:00:00 19.1 4 Sudoeste 8 Sur 0 1000.2 1.1 79
2018-10-11 01:00:00 19.1 4 Oeste 8 Sudoeste 0 1000.1 1.6 77
2018-10-11 00:00:00 20 6 Sudoeste 13 Sudoeste 0 999.6 1.6 73
2018-10-10 23:00:00 21.6 10 Sudoeste 18 Sudoeste 0 999.1 2 66
2018-10-10 22:00:00 21.9 5 Sudoeste 13 Oeste 0 998.5 1.9 66
2018-10-10 21:00:00 22.6 10 Oeste 17 Oeste 0 998 1.8 63
2018-10-10 20:00:00 24.6 10 Oeste 17 Oeste 0 997.1 1 54
2018-10-10 19:00:00 26.1 11 Oeste 22 Oeste 0 996.6 0.2 47
2018-10-10 18:00:00 26.7 10 Sudoeste 17 Sur 0 996.2 -0.4 44
2018-10-10 17:00:00 27.9 10 Sur 24 Sudoeste 0 996.1 -- 41
2018-10-10 16:00:00 25.6 8 Oeste 21 Oeste 0 996.4 -1.1 49
2018-10-10 15:00:00 26 5 Este 17 Sudoeste 0 996.6 -1.3 48
2018-10-10 14:00:00 -- -- -- -- -- -- -- -- --
2018-10-10 13:00:00 23.5 5 Este 21 Nordeste 0 997.5 -0.1 56
2018-10-10 12:00:00 22.5 10 Este 17 Este 0 997.9 0.7 60
2018-10-10 11:00:00 20.3 11 Nordeste 18 Nordeste 0 998 1.1 70
2018-10-10 10:00:00 19.3 11 Este 18 Nordeste 0 997.6 0.6 74
2018-10-10 09:00:00 17.4 10 Este 17 Este 0 997.2 0.5 85
2018-10-10 08:00:00 17.3 10 Este 17 Este 0 996.9 0 85
2018-10-10 07:00:00 17.4 9 Este 15 Este 0 997 0 87
2018-10-10 06:00:00 17.1 11 Este 21 Este 0 996.7 -1 87
2018-10-10 05:00:00 17.5 14 Este 21 Este 0 996.9 -0.9 85
2018-10-10 04:00:00 17.8 14 Este 22 Este 0 997 -0.7 84
2018-10-10 03:00:00 18.5 12 Nordeste 17 Nordeste 0 997.7 0.2 82
2018-10-10 02:00:00 18.8 13 Este 18 Este 0 997.8 0.5 80
2018-10-10 01:00:00 20 6 Noroeste 17 Oeste 0 997.7 1.1 80
2018-10-10 00:00:00 20.4 10 Noroeste 24 Oeste 0 997.5 1.3 77
2018-10-09 23:00:00 21.5 8 Oeste 30 Sur 0 997.3 1.7 63
2018-10-09 22:00:00 22.3 19 Sur 42 Sur 0 996.6 1.2 56
2018-10-09 21:00:00 23.6 24 Sur 33 Sur 0 996.2 0.6 53
2018-10-09 20:00:00 24.6 9 Sudoeste 21 Oeste 0 995.6 -0.3 41
2018-10-09 19:00:00 27.3 11 Oeste 24 Oeste 0 995.4 -0.9 32
2018-10-09 18:00:00 28.2 12 Oeste 26 Oeste 0 995.6 -1.6 30
2018-10-09 17:00:00 28.2 14 Oeste 26 Oeste 0 995.9 -2.3 30
2018-10-09 16:00:00 27.4 8 Oeste 26 Oeste 0 996.3 -3 33
2018-10-09 15:00:00 26.6 11 Oeste 24 Oeste 0 997.2 -2.9 37
2018-10-09 14:00:00 26.3 5 Sudoeste 17 Este 0 998.2 -2 37
2018-10-09 13:00:00 24 10 Este 22 Este 0 999.3 -0.5 34
2018-10-09 12:00:00 20.9 13 Este 24 Este 0 1000.1 0.9 35
2018-10-09 11:00:00 19 15 Este 22 Nordeste 0 1000.2 0.9 39
2018-10-09 10:00:00 15.8 11 Este 17 Este 0 999.8 0.2 50
2018-10-09 09:00:00 13.8 8 Este 17 Este 0 999.2 -0.7 56
2018-10-09 08:00:00 13.9 12 Este 17 Este 0 999.3 -0.6 55
2018-10-09 07:00:00 14.4 4 Nordeste 13 Este 0 999.6 -0.7 56
2018-10-09 06:00:00 13.8 6 Este 11 Este 0 999.9 -0.8 59
2018-10-09 05:00:00 14.7 8 Este 17 Este 0 999.9 -1.3 56
2018-10-09 04:00:00 13.9 2 Sudeste 8 Sur 0 1000.3 -1.3 72
2018-10-09 03:00:00 15.8 5 Este 9 Este 0 1000.7 -1.2 57
2018-10-09 02:00:00 15.5 4 Este 9 Sudeste 0 1001.2 -0.3 69
2018-10-09 01:00:00 17.6 6 Sudeste 11 Norte 0 1001.6 0.5 60
2018-10-09 00:00:00 17.4 10 Nordeste 17 Norte 0 1001.9 1.4 60
2018-10-08 23:00:00 18.6 6 Sudoeste 9 Sudoeste 0 1001.5 1 55
2018-10-08 22:00:00 19.4 10 Sur -- -- 0 1001.1 0.4 49
2018-10-08 21:00:00 22.2 5 Noroeste 9 Oeste 0 1000.5 -0.6 38
2018-10-08 20:00:00 24.2 8 Oeste 17 Sudoeste 0 1000.5 -1.1 32
2018-10-08 19:00:00 27.4 10 Sudoeste 18 Sudoeste 0 1000.7 -1.4 25
2018-10-08 18:00:00 28.6 4 Sudoeste 17 Sudoeste 0 1001.1 -1.6 21
2018-10-08 17:00:00 28.5 3 Norte 15 Oeste 0 1001.6 -2.1 21
2018-10-08 16:00:00 28.4 5 Este 15 Este 0 1002.1 -2.5 22
2018-10-08 15:00:00 26.8 5 Nordeste 26 Este 0 1002.7 -2.7 24
2018-10-08 14:00:00 25.9 14 Nordeste 30 Este 0 1003.7 -1.8 24
2018-10-08 13:00:00 24.2 17 Este 28 Nordeste 0 1004.6 -0.4 25
2018-10-08 12:00:00 22.4 16 Este 30 Este 0 1005.4 1.1 29
2018-10-08 11:00:00 20.4 20 Este 28 Este 0 1005.5 1.7 30
2018-10-08 10:00:00 17.4 12 Este 18 Este 0 1005 1.4 43
2018-10-08 09:00:00 14.7 10 Este 17 Este 0 1004.3 0.9 51
2018-10-08 08:00:00 13.8 10 Este 17 Sudeste 0 1003.8 0.3 52
2018-10-08 07:00:00 13.9 9 Este 15 Este 0 1003.6 -0.2 53
2018-10-08 06:00:00 15 12 Este 15 Este 0 1003.4 -0.7 49
2018-10-08 05:00:00 15.8 10 Este 15 Este 0 1003.5 -0.9 52
2018-10-08 04:00:00 16.8 10 Este 30 Este 0 1003.8 -0.5 56
2018-10-08 03:00:00 17.1 18 Nordeste 26 Este 0 1004.1 -0.1 52
2018-10-08 02:00:00 16.1 3 Sudoeste 11 Este 0 1004.4 0.5 66
2018-10-08 01:00:00 17.7 3 Sur 9 Oeste 0 1004.3 1.1 58
2018-10-08 00:00:00 20.5 4 Sudoeste 17 Oeste 0 1004.2 1.5 47
2018-10-07 23:00:00 22.3 3 Sudoeste 18 Sudoeste 0 1003.9 1.9 39
2018-10-07 22:00:00 24.9 15 Sudoeste 24 Oeste 0 1003.2 1.4 31
2018-10-07 21:00:00 24.4 12 Sudoeste 15 Sudoeste 0 1002.7 0.9 38
2018-10-07 20:00:00 27.5 9 Sudoeste 22 Oeste 0 1002 -0.2 29
2018-10-07 19:00:00 30.4 14 Oeste 28 Oeste 0 1001.8 -0.9 25
2018-10-07 18:00:00 31.3 17 Sudoeste 30 Sudoeste 0 1001.8 -1.8 22
2018-10-07 17:00:00 31.3 19 Sudoeste 30 Sudoeste 0 1002.2 -2.3 23
2018-10-07 16:00:00 30.8 15 Oeste 30 Oeste 0 1002.7 -2.5 27
2018-10-07 15:00:00 29.6 11 Sudoeste 26 Oeste 0 1003.6 -2.4 33
2018-10-07 14:00:00 27.7 11 Oeste 22 Oeste 0 1004.5 -1.6 40
2018-10-07 13:00:00 25.6 8 Sudoeste 18 Oeste 0 1005.2 -0.8 49
2018-10-07 12:00:00 23 9 Oeste 18 Sudoeste 0 1006 0.6 65
2018-10-07 11:00:00 20 6 Oeste 11 Oeste 0 1006.1 0.9 81
2018-10-07 10:00:00 17.8 5 Oeste 11 Oeste 0 1006 0.9 88
2018-10-07 09:00:00 16 7 Oeste 13 Oeste 0 1005.4 0.5 82
2018-10-07 08:00:00 15.3 11 Oeste 13 Oeste 0 1005.2 0.4 82
2018-10-07 07:00:00 15.7 6 Sudoeste -- -- 0 1005.1 0.1 79
2018-10-07 06:00:00 16.8 9 Oeste 13 Oeste 0 1004.9 -0.1 77
2018-10-07 05:00:00 18 4 Sudoeste 11 Oeste 0 1004.8 -0.1 71
2018-10-07 04:00:00 18.2 10 Oeste 13 Oeste 0 1005 -0.1 69
2018-10-07 03:00:00 19.1 8 Oeste 15 Oeste 0 1005 -0.2 62
2018-10-07 02:00:00 19.6 11 Oeste 15 Oeste 0 1004.9 -0.1 58
2018-10-07 01:00:00 19.8 9 Oeste 11 Oeste 0 1005.1 0.8 55
2018-10-07 00:00:00 20.4 9 Sudoeste 13 Oeste 0 1005.2 1.6 53
2018-10-06 23:00:00 21.5 7 Oeste 9 Oeste 0 1005 2 49
2018-10-06 22:00:00 22.8 8 Oeste 11 Oeste 0 1004.3 1.6 43
2018-10-06 21:00:00 24.4 9 Sudoeste 13 Oeste 0 1003.6 0.7 40
2018-10-06 20:00:00 27.4 12 Oeste 18 Oeste 0 1003 -0.2 29
2018-10-06 19:00:00 31.6 10 Oeste 21 Sudoeste 0 1002.7 -1 20
2018-10-06 18:00:00 32.6 13 Oeste 21 Oeste 0 1002.9 -1.6 16
2018-10-06 17:00:00 32.6 10 Sudoeste 18 Sudoeste 0 1003.2 -2.3 18
2018-10-06 16:00:00 31.9 6 Oeste 15 Sur 0 1003.7 -2.5 20
2018-10-06 15:00:00 30.4 3 Oeste 18 Este 0 1004.5 -2.3 23
2018-10-06 14:00:00 29 3 Nordeste 15 Este 0 1005.5 -1.5 26
2018-10-06 13:00:00 27.4 10 Este 18 Este 0 1006.2 -0.7 29
2018-10-06 12:00:00 24.8 13 Este 21 Este 0 1006.8 0.3 34
2018-10-06 11:00:00 21.5 13 Este 21 Este 0 1007 1.3 43
2018-10-06 10:00:00 18.6 5 Este 9 Este 0 1006.9 1.7 52
2018-10-06 09:00:00 15.2 5 Este 11 Este 0 1006.5 1.6 66
2018-10-06 08:00:00 13.9 5 Este 9 Este 0 1005.7 0.8 73
2018-10-06 07:00:00 14.2 7 Este 9 Este 0 1005.2 0.1 76
2018-10-06 06:00:00 13.8 0 Calma 5 Nordeste 0 1004.9 -0.5 79
2018-10-06 05:00:00 14.8 2 Nordeste 8 Este 0 1004.9 -0.5 75
2018-10-06 04:00:00 15.3 3 Sudoeste 8 Sur 0 1005.1 -0.2 72
2018-10-06 03:00:00 16.6 4 Sudoeste 8 Sudoeste 0 1005.4 0.1 68
2018-10-06 02:00:00 18.3 0 Calma 13 Noroeste 0 1005.4 0.8 58
2018-10-06 01:00:00 19.9 12 Noroeste 13 Noroeste 0 1005.3 1.2 50
2018-10-06 00:00:00 20.6 7 Oeste 11 Oeste 0 1005.3 2 46
2018-10-05 23:00:00 21.9 9 Oeste 11 Sudoeste 0 1004.6 1.6 44
2018-10-05 22:00:00 24.4 4 Nordeste 24 Sur 0 1004.1 1.3 34
2018-10-05 21:00:00 26.1 16 Sur 24 Sur 0 1003.3 0.5 30
2018-10-05 20:00:00 28.7 8 Sudoeste 13 Sudoeste 0 1003 -0.1 27
2018-10-05 19:00:00 32.1 3 Sudoeste 9 Oeste 0 1002.8 -0.9 18
2018-10-05 18:00:00 31.9 3 Este 15 Sudeste 0 1002.8 -1.7 17
2018-10-05 17:00:00 32.9 5 Sur 13 Sur 0 1003.1 -2.2 16
2018-10-05 16:00:00 32.1 6 Este 15 Sur 0 1003.7 -2.4 18
2018-10-05 15:00:00 31.4 6 Sur 17 Este 0 1004.5 -2.4 19
2018-10-05 14:00:00 28.9 6 Nordeste 18 Este 0 1005.3 -2.1 23
2018-10-05 13:00:00 27.1 12 Este 18 Este 0 1006.1 -1.3 27
2018-10-05 12:00:00 24.4 12 Este 18 Este 0 1006.9 -0.2 32
2018-10-05 11:00:00 21 12 Este 18 Este 0 1007.4 0.9 41
2018-10-05 10:00:00 17.9 8 Este 13 Este 0 1007.4 1.1 50
2018-10-05 09:00:00 14.5 8 Este 11 Este 0 1007.1 1 65
2018-10-05 08:00:00 14 5 Este 9 Este 0 1006.5 0.4 66
2018-10-05 07:00:00 13.7 5 Este 8 Este 0 1006.3 -0.1 73
2018-10-05 06:00:00 13.8 0 Calma 5 Norte 0 1006.1 -0.6 73
2018-10-05 05:00:00 14.2 2 Sur 4 Sur 0 1006.1 -0.9 74
2018-10-05 04:00:00 15.1 0 Calma 5 Nordeste 0 1006.4 -0.7 73
2018-10-05 03:00:00 16.2 3 Este 8 Norte 0 1006.7 -0.3 63
2018-10-05 02:00:00 17.1 3 Sudoeste 8 Sudoeste 0 1007 0.3 61
2018-10-05 01:00:00 19.3 5 Sur 8 Sur 0 1007.1 1 52
2018-10-05 00:00:00 21.1 7 Sudoeste 13 Sudoeste 0 1007 1.6 39
2018-10-04 23:00:00 22.6 9 Oeste 18 Oeste 0 1006.7 1.6 34
2018-10-04 22:00:00 25.2 6 Oeste 21 Sur 0 1006.1 1 27
2018-10-04 21:00:00 26.3 18 Sur 26 Sur 0 1005.4 0.1 28
2018-10-04 20:00:00 28.4 0 Calma 11 Noroeste 0 1005.1 -0.6 28
2018-10-04 19:00:00 32.7 2 Oeste 13 Sudoeste 0 1005.1 -1.2 17
2018-10-04 18:00:00 32.7 5 Oeste 15 Noroeste 0 1005.3 -1.8 19
2018-10-04 17:00:00 32 6 Noroeste 17 Oeste 0 1005.7 -2.5 20
2018-10-04 16:00:00 31.5 4 Sudoeste 18 Sudoeste 0 1006.3 -2.7 22
2018-10-04 15:00:00 31 5 Oeste 13 Este 0 1007.1 -2.7 23
2018-10-04 14:00:00 28.4 5 Sur 13 Sur 0 1008.2 -1.8 27
2018-10-04 13:00:00 26.7 5 Este 13 Este 0 1009 -0.7 31
2018-10-04 12:00:00 24.1 9 Este 17 Este 0 1009.8 0.6 36
2018-10-04 11:00:00 21 10 Este 15 Este 0 1010 1.3 43
2018-10-04 10:00:00 18.2 11 Este 17 Este 0 1009.7 1.3 53
2018-10-04 09:00:00 14.8 8 Este 11 Este 0 1009.2 0.9 67
2018-10-04 08:00:00 14 9 Este 11 Este 0 1008.7 0.2 72
2018-10-04 07:00:00 13.9 3 Nordeste 5 Nordeste 0 1008.4 -0.6 80
2018-10-04 06:00:00 14.3 3 Sur 4 Sur 0 1008.3 -1.2 80
2018-10-04 05:00:00 14.6 0 Calma 8 Sudoeste 0 1008.5 -1.1 78
2018-10-04 04:00:00 15.6 0 Calma 5 Norte 0 1009 -0.6 76
2018-10-04 03:00:00 16.3 4 Norte 8 Sur 0 1009.5 0 72
2018-10-04 02:00:00 17.2 0 Calma 8 Oeste 0 1009.6 0.6 65
2018-10-04 01:00:00 18 5 Sudoeste 8 Sudoeste 0 1009.6 1 65
2018-10-04 00:00:00 19.9 4 Sudoeste 18 Sudoeste 0 1009.5 1.4 52
2018-10-03 23:00:00 22 9 Oeste 11 Oeste 0 1009 1.4 44
2018-10-03 22:00:00 23.7 10 Oeste 22 Oeste 0 1008.6 1.2 36
2018-10-03 21:00:00 24.1 6 Sur 13 Sur 0 1008.1 0.5 42
2018-10-03 20:00:00 28.8 3 Oeste -- -- 0 1007.6 -0.2 29
2018-10-03 19:00:00 31.5 5 Oeste 9 Oeste 0 1007.4 -1.1 20
2018-10-03 18:00:00 31.9 6 Sudoeste 11 Oeste 0 1007.6 -1.7 18
2018-10-03 17:00:00 32 7 Oeste 15 Sudoeste 0 1007.8 -2.5 19
2018-10-03 16:00:00 31.6 5 Oeste 13 Sudoeste 0 1008.5 -2.6 18
2018-10-03 15:00:00 30.3 9 Sudeste 17 Sudeste 0 1009.3 -2.3 24
2018-10-03 14:00:00 28.3 5 Este 18 Este 0 1010.3 -1.6 30
2018-10-03 13:00:00 26.6 9 Este 21 Este 0 1011.1 -0.4 34
2018-10-03 12:00:00 24 13 Este 22 Este 0 1011.6 0.6 31
2018-10-03 11:00:00 21.1 15 Este 22 Nordeste 0 1011.9 1.6 27
2018-10-03 10:00:00 18.3 11 Este 17 Este 0 1011.5 1.3 31
2018-10-03 09:00:00 15 5 Este 9 Este 0 1011 1 48
2018-10-03 08:00:00 14.3 7 Este 11 Este 0 1010.3 0.4 51
2018-10-03 07:00:00 15 8 Este 13 Este 0 1010.2 0.2 48
2018-10-03 06:00:00 15.7 11 Este 15 Este 0 1010 0 40
2018-10-03 05:00:00 15.9 7 Este 11 Este 0 1009.9 0 40
2018-10-03 04:00:00 15.7 7 Nordeste 11 Este 0 1010 0.3 46
2018-10-03 03:00:00 15.9 5 Nordeste 9 Nordeste 0 1010 0.6 44
2018-10-03 02:00:00 15.6 5 Este 13 Sudoeste 0 1009.9 1.2 55
2018-10-03 01:00:00 17.7 3 Este 9 Nordeste 0 1009.7 1.7 39
2018-10-03 00:00:00 20.7 5 Este 15 Este 0 1009.4 2.4 24
2018-10-02 23:00:00 21.3 13 Nordeste 18 Nordeste 0 1008.7 2.4 22
2018-10-02 22:00:00 20.2 13 Este 18 Este 0 1008 1.9 33
2018-10-02 21:00:00 23.5 2 Noroeste 11 Norte 0 1007 0.9 28
2018-10-02 20:00:00 28.9 7 Norte 9 Norte 0 1006.3 0.1 12
2018-10-02 19:00:00 33.1 0 Calma 9 Sudoeste 0 1006.1 -0.6 10
2018-10-02 18:00:00 33.4 6 Sur 15 Sur 0 1006.1 -1.1 10
2018-10-02 17:00:00 33.2 5 Oeste 13 Sur 0 1006.2 -1.9 10
2018-10-02 16:00:00 32.1 6 Este 18 Este 0 1006.7 -2.3 11
2018-10-02 15:00:00 31.2 10 Este 24 Este 0 1007.2 -2.3 13
2018-10-02 14:00:00 29.7 14 Este 28 Este 0 1008.1 -1.4 14
2018-10-02 13:00:00 28.2 17 Este 28 Este 0 1009 -0.1 14
2018-10-02 12:00:00 24.9 19 Este 33 Este 0 1009.5 0.9 22
2018-10-02 11:00:00 22.9 22 Este 32 Este 0 1009.5 1.6 27
2018-10-02 10:00:00 19.7 13 Este 21 Este 0 1009.1 1.7 42
2018-10-02 09:00:00 16.2 9 Este 15 Este 0 1008.6 1.7 52
2018-10-02 08:00:00 15.7 11 Este 17 Este 0 1007.9 1.3 53
2018-10-02 07:00:00 16.3 12 Este 22 Este 0 1007.4 0.5 53
2018-10-02 06:00:00 17 16 Este 24 Este 0 1006.9 -0.1 58
2018-10-02 05:00:00 17.1 12 Este 18 Este 0 1006.6 -0.4 68
2018-10-02 04:00:00 17.4 4 Nordeste 8 Este 0 1006.9 -0.1 80
2018-10-02 03:00:00 18.6 0 Calma 9 Este 0 1007 0.3 83
2018-10-02 02:00:00 19.9 7 Nordeste 11 Nordeste 0 1007 1.3 80
2018-10-02 01:00:00 21.7 3 Nordeste 13 Sudoeste 0 1007 2.1 77
2018-10-02 00:00:00 21.1 3 Este 15 Este 0 1006.7 2.1 85
2018-10-01 23:00:00 21.4 3 Oeste 15 Sudoeste 0 1005.7 1.5 86
2018-10-01 22:00:00 22.5 2 Este 9 Este 0 1004.9 0.9 83
2018-10-01 21:00:00 24 0 Calma 5 Este 0 1004.6 0.6 82
2018-10-01 20:00:00 26.3 5 Nordeste 8 Este 0 1004.2 0.3 74
2018-10-01 19:00:00 27.6 3 Noroeste 21 Norte 0.1 1004 -0.5 63
2018-10-01 18:00:00 28.2 -- -- 28 Norte 0.8 1004 -1.6 54
2018-10-01 17:00:00 33.1 4 Norte 17 Oeste 0 1003.9 -2.6 30
2018-10-01 16:00:00 32.3 8 Sudoeste 15 Sudoeste 0 1004.5 -2.5 34
2018-10-01 15:00:00 31.1 6 Sudoeste 15 Sudoeste 0 1005.6 -2 36
2018-10-01 14:00:00 29.3 5 Oeste 13 Oeste 0 1006.5 -1.2 44
2018-10-01 13:00:00 28.1 7 Oeste 17 Oeste 0 1007 -0.4 47
2018-10-01 12:00:00 25.6 5 Oeste 11 Oeste 0 1007.6 0.7 54
2018-10-01 11:00:00 23.4 7 Sudoeste 11 Sudoeste 0 1007.7 1 67
2018-10-01 10:00:00 20.1 6 Sur 8 Sur 0 1007.4 1 81
2018-10-01 09:00:00 17.8 4 Sudoeste -- -- 0 1006.9 0.8 87
2018-10-01 08:00:00 17.8 4 Sudoeste 8 Oeste 0 1006.7 0.7 87
2018-10-01 07:00:00 18.1 8 Sudoeste 9 Sudoeste 0 1006.4 0.1 86
2018-10-01 06:00:00 18.1 5 Oeste 9 Oeste 0 1006.1 -0.4 85
2018-10-01 05:00:00 18.7 8 Oeste 13 Sur 0 1006 -0.5 79
2018-10-01 04:00:00 19.7 12 Sudoeste 15 Sudoeste 0 1006.3 0 73
2018-10-01 03:00:00 20.1 6 Sudoeste 9 Sudoeste 0 1006.5 0.4 79
2018-10-01 02:00:00 20.7 8 Noroeste 9 Noroeste 0 1006.5 0.7 74
2018-10-01 01:00:00 22 0 Calma 8 Oeste 0 1006.3 0.8 68
2018-10-01 00:00:00 23.1 7 Sudoeste 22 Sudoeste 0 1006.1 1.1 62
2018-09-30 23:00:00 24.1 4 Sur 15 Oeste 0 1005.8 1.2 55
2018-09-30 22:00:00 24.2 12 Oeste 13 Oeste 0 1005.5 0.8 59
2018-09-30 21:00:00 26.1 4 Sur 13 Oeste 0 1005 0.5 50
2018-09-30 20:00:00 28.2 9 Oeste 15 Oeste 0 1004.6 -0.1 44
2018-09-30 19:00:00 31.4 10 Oeste 21 Oeste 0 1004.7 -0.4 34
2018-09-30 18:00:00 31.9 10 Oeste 21 Oeste 0 1004.5 -1.4 33
2018-09-30 17:00:00 31.5 12 Oeste 21 Oeste 0 1004.7 -2.1 36
2018-09-30 16:00:00 31.5 8 Sudoeste 18 Sudoeste 0 1005.1 -2.3 36
2018-09-30 15:00:00 30.4 8 Sudoeste 17 Sudoeste 0 1005.9 -2 41
2018-09-30 14:00:00 28.7 8 Oeste 17 Oeste 0 1006.8 -1.2 48
2018-09-30 13:00:00 26.8 9 Oeste 21 Oeste 0 1007.4 -0.1 53
2018-09-30 12:00:00 25.2 9 Oeste 17 Oeste 0 1007.9 0.9 61
2018-09-30 11:00:00 24.5 3 Oeste 8 Oeste 0 1008 1.9 59
2018-09-30 10:00:00 21.8 2 Este 4 Este 0 1007.5 2 69
2018-09-30 09:00:00 17.9 3 Sudoeste 5 Sudoeste 0 1007 1.9 91
2018-09-30 08:00:00 17.3 0 Calma 4 Sudoeste 0 1006.1 1.3 91
2018-09-30 07:00:00 17.8 0 Calma -- -- 0 1005.5 0.6 91
2018-09-30 06:00:00 18 0 Calma 4 Sur 0 1005.1 0.4 91
2018-09-30 05:00:00 18.5 0 Calma 5 Sudoeste 0 1004.8 0.4 89
2018-09-30 04:00:00 19.1 0 Calma 5 Sudoeste 0 1004.9 0.7 87
2018-09-30 03:00:00 20 3 Sur 9 Noroeste 0 1004.7 0.6 84
2018-09-30 02:00:00 19.9 6 Noroeste 9 Noroeste 0 1004.4 0.7 82
2018-09-30 01:00:00 21.5 3 Sudeste 8 Norte 0 1004.2 0.9 75
2018-09-30 00:00:00 21.4 4 Este 15 Sudoeste 0 1004.1 1.4 75
2018-09-29 23:00:00 22.4 5 Sur 5 Sudoeste 0 1003.7 1.2 77
2018-09-29 22:00:00 24.2 5 Sur 8 Oeste 0 1003.3 0.9 68
2018-09-29 21:00:00 25.4 6 Oeste 9 Noroeste 0 1002.7 0.3 58
2018-09-29 20:00:00 29.5 -- -- -- -- 0 1002.5 -0.4 41
2018-09-29 19:00:00 31.8 8 Oeste 11 Oeste 0 1002.4 -0.9 32
2018-09-29 18:00:00 32.4 6 Sudoeste 15 Sudoeste 0 1002.4 -1.8 29
2018-09-29 17:00:00 31.8 6 Sudoeste 15 Oeste 0 1002.9 -2.2 33
2018-09-29 16:00:00 31.2 6 Sudoeste 15 Sudoeste 0 1003.3 -2.6 34
2018-09-29 15:00:00 30.2 7 Este 13 Este 0 1004.2 -2.4 37
2018-09-29 14:00:00 29 7 Sudoeste 15 Oeste 0 1005.1 -1.8 44
2018-09-29 13:00:00 27.6 4 Sur 13 Sudeste 0 1005.9 -0.8 48
2018-09-29 12:00:00 25.4 6 Este 13 Este 0 1006.6 0.1 57
2018-09-29 11:00:00 23.5 5 Este 13 Este 0 1006.9 0.8 62
2018-09-29 10:00:00 20.9 10 Este 13 Este 0 1006.7 1 74
2018-09-29 09:00:00 18.1 0 Calma 4 Este 0 1006.5 1 91
2018-09-29 08:00:00 17 2 Oeste 5 Sudoeste 0 1006.1 0.4 92
2018-09-29 07:00:00 17.2 3 Este -- -- 0 1005.7 -0.4 91
2018-09-29 06:00:00 17.8 4 Sudoeste 8 Sudoeste 0 1005.5 -0.6 90
2018-09-29 05:00:00 18.3 3 Norte 4 Norte 0 1005.7 -0.4 87
2018-09-29 04:00:00 18.6 0 Calma 8 Sudoeste 0 1006.1 0.2 86
2018-09-29 03:00:00 19.1 6 Sudoeste 11 Oeste 0 1006.1 0.4 84
2018-09-29 02:00:00 19.5 8 Oeste 11 Oeste 0 1006.1 0.5 83
2018-09-29 01:00:00 20 5 Sudoeste -- -- 0 1005.9 0.7 82
2018-09-29 00:00:00 21.1 4 Sudoeste 5 Sur 0 1005.7 1 76
2018-09-28 23:00:00 21.3 5 Noroeste 11 Noroeste 0 1005.6 1 72
2018-09-28 22:00:00 22.9 3 Sudoeste 8 Sur 0 1005.2 0.5 65
2018-09-28 21:00:00 24.8 4 Norte 9 Noroeste 0 1004.7 -0.2 53
2018-09-28 20:00:00 28.7 5 Sudoeste 13 Sur 0 1004.6 -1 40
2018-09-28 19:00:00 30.9 8 Sur 15 Sur 0 1004.7 -1.6 28
2018-09-28 18:00:00 31.6 8 Sur 18 Sur 0 1004.9 -2.5 28
2018-09-28 17:00:00 30.7 7 Sudeste 21 Sur 0 1005.6 -2.8 33
2018-09-28 16:00:00 30.4 9 Sudeste 15 Sudeste 0 1006.3 -3.1 37
2018-09-28 15:00:00 29.9 8 Sur 18 Sur 0 1007.4 -2.6 41
2018-09-28 14:00:00 28.6 6 Sur 17 Sur 0 1008.4 -1.8 47
2018-09-28 13:00:00 27.6 9 Este 15 Este 0 1009.4 -0.8 51
2018-09-28 12:00:00 26.3 6 Sur 13 Sur 0 1010 0.2 57
2018-09-28 11:00:00 23.7 8 Este 13 Nordeste 0 1010.2 0.6 68
2018-09-28 10:00:00 22.1 9 Este 13 Este 0 1010.2 0.9 76
2018-09-28 09:00:00 19.1 0 Calma 8 Sudeste 0 1009.8 0.6 89
2018-09-28 08:00:00 18.4 0 Calma 5 Sur 0 1009.6 0.1 90
2018-09-28 07:00:00 18.3 4 Nordeste 5 Nordeste 0 1009.3 -0.8 89
2018-09-28 06:00:00 19 4 Sur 9 Sur 0 1009.2 -1.5 88
2018-09-28 05:00:00 19.4 6 Sudoeste 9 Sur 0 1009.5 -1.4 86
2018-09-28 04:00:00 20 2 Sudoeste 8 Noroeste 0 1010.1 -0.9 84
2018-09-28 03:00:00 20.3 0 Calma -- -- 0 1010.7 -0.4 80
2018-09-28 02:00:00 20.9 5 Oeste 11 Sudoeste 0 1010.9 0 78
2018-09-28 01:00:00 21.6 4 Oeste 11 Sur 0 1011 0.8 78
2018-09-28 00:00:00 23.3 10 Sur 15 Oeste 0 1011.1 1.8 69
2018-09-27 23:00:00 24.7 9 Oeste 18 Oeste 0 1010.9 1.7 61
2018-09-27 22:00:00 25.4 12 Oeste 26 Sudoeste 0 1010.2 0.9 58
2018-09-27 21:00:00 26.5 6 Oeste 8 Oeste 0 1009.3 -0.6 59
2018-09-27 20:00:00 29.1 -- -- -- -- 0 1009.2 -1.4 51
2018-09-27 19:00:00 32.3 5 Sur 13 Sur 0 1009.3 -2 29
2018-09-27 18:00:00 32.6 8 Sudeste 21 Este 0 1009.9 -2.4 28
2018-09-27 17:00:00 32.6 11 Sudeste 21 Sudeste 0 1010.6 -2.6 30
2018-09-27 16:00:00 31.7 9 Sudeste 21 Sudeste 0 1011.3 -2.8 32
2018-09-27 15:00:00 30.4 9 Nordeste 22 Este 0 1012.3 -2.5 34
2018-09-27 14:00:00 30.7 13 Este 26 Este 0 1013.2 -1.6 36
2018-09-27 13:00:00 29.2 15 Este 28 Este 0 1014.1 -0.6 42
2018-09-27 12:00:00 27.6 13 Este 26 Este 0 1014.8 0.3 51
2018-09-27 11:00:00 24.7 9 Este 17 Este 0 1014.8 0.8 65
2018-09-27 10:00:00 22.1 10 Este 15 Este 0 1014.7 0.8 81
2018-09-27 09:00:00 19.8 3 Norte 5 Nordeste 0 1014.5 0.5 96
2018-09-27 08:00:00 19.3 3 Este 5 Este 0 1014 -0.1 97
2018-09-27 07:00:00 19.5 0 Calma 5 Este 0 1013.9 -0.5 97
2018-09-27 06:00:00 20 4 Sur 5 Sudoeste 0 1014 -1 97
2018-09-27 05:00:00 19.8 3 Noroeste 9 Sudoeste 0 1014.1 -0.6 97
2018-09-27 04:00:00 20.8 0 Calma 5 Sur 0 1014.4 -0.2 96
2018-09-27 03:00:00 20.9 4 Sur 8 Sur 0 1015 0.4 96
2018-09-27 02:00:00 21.5 4 Sur 8 Sur 0 1014.7 0.3 96
2018-09-27 01:00:00 21.6 4 Este 5 Este 0 1014.6 0.6 95
2018-09-27 00:00:00 21.8 4 Sudoeste 9 Noroeste 0 1014.6 1.5 94
2018-09-26 23:00:00 22.3 5 Sur 9 Nordeste 0 1014.4 1.8 94
2018-09-26 22:00:00 22.3 8 Oeste 13 Sur 0 1014 2.1 93
2018-09-26 21:00:00 22.3 0 Calma 17 Noroeste 0.7 1013.1 2.8 94
2018-09-26 20:00:00 21.6 15 Noroeste 39 Noroeste 23.7 1012.6 2.2 95
2018-09-26 19:00:00 25.6 13 Norte 54 Sur 0.7 1011.9 1 63
2018-09-26 18:00:00 33.5 3 Sur 11 Este 0 1010.3 -1.6 33
2018-09-26 17:00:00 32.6 6 Norte 22 Este 0 1010.4 -2.3 35
2018-09-26 16:00:00 33 9 Norte 18 Sudoeste 0 1010.9 -2.3 35
2018-09-26 15:00:00 32.4 5 Sudoeste 17 Este 0 1011.9 -1.4 37
2018-09-26 14:00:00 30.5 4 Sudoeste 17 Este 0 1012.7 -0.7 43
2018-09-26 13:00:00 30.5 9 Sudeste 21 Este 0 1013.2 0.2 44
2018-09-26 12:00:00 29.2 10 Este 18 Este 0 1013.3 1 49
2018-09-26 11:00:00 26.9 6 Este 13 Este 0 1013.4 -- 59
2018-09-26 10:00:00 24.4 8 Este 11 Este 0 1013 -- 67
2018-09-26 09:00:00 21.7 2 Sudeste 9 Sudoeste 0 1012.3 -- 76
2018-09-26 08:00:00 -- -- -- -- -- -- -- -- --
2018-09-26 07:00:00 -- -- -- -- -- -- -- -- --
2018-09-26 06:00:00 -- -- -- -- -- -- -- -- --
2018-09-26 05:00:00 -- -- -- -- -- -- -- -- --
2018-09-26 04:00:00 -- -- -- -- -- -- -- -- --
2018-09-26 03:00:00 -- -- -- -- -- -- -- -- --
2018-09-26 02:00:00 23.8 5 Oeste 18 Oeste 0 1010.5 1.6 60
2018-09-26 01:00:00 25.4 13 Sudoeste 21 Sudoeste 0 1010.2 2.1 56
2018-09-26 00:00:00 24.2 13 Oeste 17 Oeste 0 1009.5 2.1 56
2018-09-25 23:00:00 25.6 10 Oeste 21 Sudoeste 0 1008.9 2.3 49
2018-09-25 22:00:00 28.4 12 Sudoeste 33 Sudoeste 0 1008.1 1.7 39
2018-09-25 21:00:00 30.2 4 Oeste 22 Sur 0 1007.4 0.7 32
2018-09-25 20:00:00 33.2 11 Sur 21 Sur 0 1006.6 -0.3 24
2018-09-25 19:00:00 35.7 13 Sur 22 Sudoeste 0 1006.4 -1 19
2018-09-25 18:00:00 36.8 13 Sur 28 Sudoeste 0 1006.7 -1.3 17
2018-09-25 17:00:00 37.2 15 Sur 30 Sudoeste 0 1006.9 -2.1 17
2018-09-25 16:00:00 36.9 15 Sur 30 Sur 0 1007.4 -2.2 17
2018-09-25 15:00:00 36.1 11 Sudoeste 22 Sudoeste 0 1008 -2 20
2018-09-25 14:00:00 34.9 5 Sudeste 15 Este 0 1009 -1.1 22
2018-09-25 13:00:00 32.8 5 Este 13 Nordeste 0 1009.6 -0.1 23
2018-09-25 12:00:00 30.2 4 Nordeste 11 Este 0 1010 0.8 26
2018-09-25 11:00:00 27.4 8 Este 13 Este 0 1010.1 1.4 33
2018-09-25 10:00:00 24.3 6 Este 11 Este 0 1009.7 1.5 43
2018-09-25 09:00:00 20 0 Calma 8 Nordeste 0 1009.2 1.3 62
2018-09-25 08:00:00 18.9 2 Norte 5 Norte 0 1008.7 0.7 66
2018-09-25 07:00:00 19.3 2 Nordeste 5 Nordeste 0 1008.2 0.2 63
2018-09-25 06:00:00 20.4 4 Este 11 Nordeste 0 1007.9 -0.3 57
2018-09-25 05:00:00 20.2 4 Nordeste 8 Nordeste 0 1008 -0.3 59
2018-09-25 04:00:00 21.4 3 Sudoeste 8 Sudoeste 0 1008 -0.4 56
2018-09-25 03:00:00 22.5 0 Calma 5 Oeste 0 1008.2 0 50
2018-09-25 02:00:00 24.2 2 Noroeste 11 Norte 0 1008.3 0.7 40
2018-09-25 01:00:00 24.4 0 Calma 15 Oeste 0 1008.4 1.6 43
2018-09-25 00:00:00 26 12 Oeste 17 Oeste 0 1008.2 2.3 35
2018-09-24 23:00:00 28 8 Oeste 13 Sudoeste 0 1007.6 2.1 29
2018-09-24 22:00:00 30.5 10 Noroeste 18 Noroeste 0 1006.8 1.3 23
2018-09-24 21:00:00 30.5 8 Noroeste 9 Noroeste 0 1005.9 0.2 29
2018-09-24 20:00:00 35.3 3 Oeste 11 Sur 0 1005.5 -0.7 22
2018-09-24 19:00:00 37.4 0 Calma 13 Noroeste 0 1005.5 -1.5 14
2018-09-24 18:00:00 38.4 5 Oeste 17 Sudoeste 0 1005.7 -2.2 14
2018-09-24 17:00:00 38.5 7 Sudoeste 13 Oeste 0 1006.2 -2.8 15
2018-09-24 16:00:00 37.4 4 Noroeste 15 Sudeste 0 1007 -2.8 16
2018-09-24 15:00:00 35.5 6 Norte 15 Este 0 1007.9 -2.4 18
2018-09-24 14:00:00 35 4 Sudeste 13 Este 0 1009 -1.4 19
2018-09-24 13:00:00 32.1 4 Nordeste 15 Nordeste 0 1009.8 -0.3 24
2018-09-24 12:00:00 29.6 13 Nordeste 18 Nordeste 0 1010.3 0.6 28
2018-09-24 11:00:00 26.8 12 Este 18 Este 0 1010.4 1.2 36
2018-09-24 10:00:00 24 8 Este 11 Este 0 1010.1 1.2 44
2018-09-24 09:00:00 19.9 0 Calma 4 Este 0 1009.7 1.2 58
2018-09-24 08:00:00 18.4 0 Calma -- -- 0 1009.2 0.6 70
2018-09-24 07:00:00 18.7 0 Calma -- -- 0 1008.9 0 67
2018-09-24 06:00:00 19.1 0 Calma -- -- 0 1008.5 -0.6 65
2018-09-24 05:00:00 19.8 0 Calma -- -- 0 1008.6 -0.6 62
2018-09-24 04:00:00 20.2 0 Calma 4 Sudoeste 0 1008.9 -0.3 62
2018-09-24 03:00:00 21.6 3 Sudoeste 9 Sudoeste 0 1009.1 0 55
2018-09-24 02:00:00 23 8 Sur 9 Sur 0 1009.2 0.4 45
2018-09-24 01:00:00 24.1 5 Sudoeste 9 Sur 0 1009.2 1.1 46
2018-09-24 00:00:00 25.4 5 Sur 11 Oeste 0 1009.1 2 36
2018-09-23 23:00:00 27.1 11 Oeste 17 Oeste 0 1008.8 1.9 32
2018-09-23 22:00:00 29.1 10 Oeste 32 Sur 0 1008.1 1.3 28
2018-09-23 21:00:00 30.8 0 Calma -- -- 0 1007.1 0.1 30
2018-09-23 20:00:00 35.3 0 Calma 15 Este 0 1006.9 -0.6 21
2018-09-23 19:00:00 37.7 3 Este 17 Este 0 1006.8 -1.3 17
2018-09-23 18:00:00 37.6 9 Este 24 Este 0 1007 -2 17
2018-09-23 17:00:00 37.9 9 Este 21 Este 0 1007.5 -2.4 17
2018-09-23 16:00:00 36.8 12 Nordeste 37 Nordeste 0 1008.1 -2.6 19
2018-09-23 15:00:00 36.5 8 Este 21 Este 0 1009 -2.4 20
2018-09-23 14:00:00 34.5 10 Este 21 Este 0 1009.9 -1.7 23
2018-09-23 13:00:00 32.5 10 Este 18 Nordeste 0 1010.7 -0.7 25
2018-09-23 12:00:00 30 13 Este 22 Este 0 1011.4 0.6 31
2018-09-23 11:00:00 26.9 13 Este 22 Este 0 1011.6 1.2 40
2018-09-23 10:00:00 23.9 10 Este 15 Este 0 1011.4 1.4 49
2018-09-23 09:00:00 20.4 4 Nordeste 9 Este 0 1010.8 0.7 64
2018-09-23 08:00:00 18.4 5 Nordeste 8 Nordeste 0 1010.4 0.4 73
2018-09-23 07:00:00 19.3 0 Calma 5 Norte 0 1010 -0.2 69
2018-09-23 06:00:00 20 4 Nordeste 8 Nordeste 0 1010.1 -0.5 64
2018-09-23 05:00:00 20.4 3 Sudoeste 8 Sur 0 1010 -0.5 65
2018-09-23 04:00:00 20.7 8 Sudoeste 9 Sudoeste 0 1010.2 -0.3 61
2018-09-23 03:00:00 22.2 0 Calma 8 Sudoeste 0 1010.6 0.2 52
2018-09-23 02:00:00 22.6 5 Sudoeste 9 Oeste 0 1010.5 0.6 53
2018-09-23 01:00:00 24 5 Sudoeste 9 Sudoeste 0 1010.5 1.1 47
2018-09-23 00:00:00 24.5 5 Sudoeste 13 Oeste 0 1010.4 2.3 45
2018-09-22 23:00:00 26.4 11 Oeste 13 Oeste 0 1009.9 2.3 39
2018-09-22 22:00:00 29.8 12 Oeste 28 Oeste 0 1009.4 2.1 28
2018-09-22 21:00:00 31.1 15 Sudoeste 26 Sudoeste 0 1008.1 0.6 29
2018-09-22 20:00:00 35.3 8 Nordeste 15 Nordeste 0 1007.6 -0.3 19
2018-09-22 19:00:00 37.3 8 Nordeste 30 Este 0 1007.3 -1 17
2018-09-22 18:00:00 37.1 11 Este 24 Nordeste 0 1007.5 -1.6 17
2018-09-22 17:00:00 38.1 10 Este 22 Este 0 1007.9 -2 17
2018-09-22 16:00:00 37.2 10 Nordeste 21 Este 0 1008.3 -2.1 18
2018-09-22 15:00:00 36.3 8 Este 15 Este 0 1009.1 -1.7 21
2018-09-22 14:00:00 35.3 5 Sudeste 21 Este 0 1009.9 -0.9 21
2018-09-22 13:00:00 32.6 13 Este 21 Este 0 1010.4 0 29
2018-09-22 12:00:00 30.3 15 Este 26 Este 0 1010.8 0.8 34
2018-09-22 11:00:00 27.2 16 Este 24 Este 0 1010.8 1.4 44
2018-09-22 10:00:00 24.1 12 Este 18 Este 0 1010.4 1.5 55
2018-09-22 09:00:00 20.7 6 Este 9 Este 0 1010 1.5 72
2018-09-22 08:00:00 -- 8 Nordeste 9 Nordeste 0 1009.4 1.2 --
2018-09-22 07:00:00 19.3 0 Calma -- -- 0 1008.9 0.6 79
2018-09-22 06:00:00 19.9 0 Calma -- -- 0 1008.5 0.2 78
2018-09-22 05:00:00 20.5 0 Calma -- -- 0 1008.2 -0.2 75
2018-09-22 04:00:00 21.3 0 Calma -- -- 0 1008.3 0.1 72
2018-09-22 03:00:00 22.3 0 Calma 8 Sudoeste 0 1008.3 0.7 66
2018-09-22 02:00:00 23.8 5 Sur 11 Noroeste 0 1008.4 1.3 62
2018-09-22 01:00:00 24 9 Noroeste 13 Sur 0 1008.2 1.6 58
2018-09-22 00:00:00 25.4 8 Sur 13 Sudeste 0 1007.6 1.8 55
2018-09-21 23:00:00 26.2 3 Sudoeste 9 Sudoeste 0 1007.1 1.7 55
2018-09-21 22:00:00 27.5 4 Sudoeste 8 Sudoeste 0 1006.6 1.5 49
2018-09-21 21:00:00 29.5 0 Calma 9 Oeste 0 1005.8 0.7 42
2018-09-21 20:00:00 32.8 8 Oeste 15 Sudoeste 0 1005.4 -0.1 32
2018-09-21 19:00:00 35.5 8 Oeste 15 Oeste 0 1005.1 -0.8 26
2018-09-21 18:00:00 36.1 3 Sur 18 Sudoeste 0 1005.1 -1.6 24
2018-09-21 17:00:00 35.8 7 Sudeste 18 Sur 0 1005.5 -2 24
2018-09-21 16:00:00 34.8 7 Este 15 Sudeste 0 1005.9 -2.5 28
2018-09-21 15:00:00 34.8 3 Sur 15 Sur 0 1006.7 -1.9 30
2018-09-21 14:00:00 32.7 4 Este 15 Este 0 1007.5 -0.9 35
2018-09-21 13:00:00 30.5 6 Nordeste 15 Este 0 1008.4 0.4 42
2018-09-21 12:00:00 28.9 5 Este 15 Este 0 1008.6 0.6 49
2018-09-21 11:00:00 26.2 8 Nordeste 15 Este 0 1008.4 0.8 59
2018-09-21 10:00:00 24.4 10 Sudeste 13 Sudeste 0 1008 1.1 67
2018-09-21 09:00:00 21.6 0 Calma -- -- 0 1008 1.3 82
2018-09-21 08:00:00 20.3 0 Calma 2 Nordeste 0 1007.6 0.7 85
2018-09-21 07:00:00 20.6 0 Calma 5 Sudeste 0 1006.9 -0.1 82
2018-09-21 06:00:00 21.4 4 Sudoeste 9 Oeste 0 1006.7 -0.2 81
2018-09-21 05:00:00 22.3 5 Oeste 13 Oeste 0 1006.9 0.2 75
2018-09-21 04:00:00 23.2 9 Oeste 13 Oeste 0 1007 0.1 72
2018-09-21 03:00:00 24.1 8 Oeste 18 Oeste 0 1006.9 0.3 67
2018-09-21 02:00:00 25 11 Oeste 17 Oeste 0 1006.7 0.4 63
2018-09-21 01:00:00 25.6 9 Sudoeste 17 Sudoeste 0 1006.9 1.2 59
2018-09-21 00:00:00 26.6 8 Sur 15 Sur 0 1006.6 1.5 51
2018-09-20 23:00:00 27.9 4 Oeste 24 Oeste 0 1006.3 1.5 47
2018-09-20 22:00:00 28.5 6 Oeste 15 Oeste 0 1005.7 1 43
2018-09-20 21:00:00 29.6 3 Oeste 5 Oeste 0 1005.1 0.1 41
2018-09-20 20:00:00 32.3 2 Oeste 21 Sudoeste 0 1004.8 -0.9 32
2018-09-20 19:00:00 34.6 5 Oeste 26 Sudoeste 0 1004.7 -1.6 27
2018-09-20 18:00:00 35 8 Sudoeste 17 Oeste 0 1005 -2.1 26
2018-09-20 17:00:00 34.6 11 Sur 24 Oeste 0 1005.7 -2.2 25
2018-09-20 16:00:00 34.2 8 Oeste 21 Oeste 0 1006.3 -2.3 30
2018-09-20 15:00:00 33 8 Oeste 18 Sudoeste 0 1007.1 -2.1 33
2018-09-20 14:00:00 32.1 10 Sudoeste 17 Sudoeste 0 1007.9 -1.3 38
2018-09-20 13:00:00 30.7 5 Nordeste 17 Este 0 1008.6 -0.6 42
2018-09-20 12:00:00 28.8 5 Este 15 Este 0 1009.2 0.2 48
2018-09-20 11:00:00 27.1 4 Este 9 Sudeste 0 1009.2 0.6 55
2018-09-20 10:00:00 24.7 3 Sudeste 8 Este 0 1009.2 0.8 64
2018-09-20 09:00:00 21.9 0 Calma 8 Este 0 1009 0.5 80
2018-09-20 08:00:00 20.7 0 Calma -- -- 0 1008.6 0.2 84
2018-09-20 07:00:00 21 0 Calma 4 Sudeste 0 1008.4 -0.1 83
2018-09-20 06:00:00 21.6 0 Calma 5 Este 0 1008.5 0 81
2018-09-20 05:00:00 22 6 Oeste 9 Oeste 0 1008.4 0 80
2018-09-20 04:00:00 23.5 2 Sur 9 Oeste 0 1008.5 0 72
2018-09-20 03:00:00 23.8 5 Oeste 18 Sudoeste 0 1008.5 0.4 69
2018-09-20 02:00:00 25.7 11 Oeste 24 Sudoeste 0 1008.4 0.6 61
2018-09-20 01:00:00 26.8 9 Sudoeste 18 Sur 0 1008.5 1.3 55
2018-09-20 00:00:00 27 4 Norte 18 Oeste 0 1008.1 1.5 53